createdAt,value
2018-06-17T00:00:05.817Z,0.00
2018-06-17T00:01:05.820Z,0.00
2018-06-17T00:02:05.827Z,0.00
2018-06-17T00:03:05.827Z,0.00
2018-06-17T00:04:05.828Z,0.00
2018-06-17T00:05:05.834Z,0.00
2018-06-17T00:06:05.834Z,0.00
2018-06-17T00:07:05.836Z,0.00
2018-06-17T00:08:05.839Z,0.00
2018-06-17T00:09:05.838Z,0.00
2018-06-17T00:10:05.842Z,0.00
2018-06-17T00:11:05.847Z,0.00
2018-06-17T00:12:05.848Z,0.00
2018-06-17T00:13:05.852Z,0.00
2018-06-17T00:14:05.856Z,0.00
2018-06-17T00:15:05.857Z,0.00
2018-06-17T00:16:05.857Z,0.00
2018-06-17T00:17:05.873Z,0.00
2018-06-17T00:18:05.868Z,0.00
2018-06-17T00:19:05.870Z,0.00
2018-06-17T00:20:05.868Z,0.00
2018-06-17T00:21:05.872Z,0.00
2018-06-17T00:22:05.874Z,0.00
2018-06-17T00:23:05.877Z,0.00
2018-06-17T00:24:05.878Z,0.00
2018-06-17T00:25:05.886Z,0.00
2018-06-17T00:26:05.883Z,0.00
2018-06-17T00:27:05.888Z,0.00
2018-06-17T00:28:05.888Z,0.00
2018-06-17T00:29:05.894Z,0.00
2018-06-17T00:30:05.898Z,0.00
2018-06-17T00:31:05.897Z,0.00
2018-06-17T00:32:05.902Z,0.00
2018-06-17T00:33:05.905Z,0.00
2018-06-17T00:34:05.903Z,0.00
2018-06-17T00:35:05.907Z,0.00
2018-06-17T00:36:05.912Z,0.00
2018-06-17T00:37:05.912Z,0.00
2018-06-17T00:38:05.913Z,0.00
2018-06-17T00:39:05.959Z,0.00
2018-06-17T00:40:05.920Z,0.00
2018-06-17T00:41:05.938Z,0.00
2018-06-17T00:42:05.925Z,0.00
2018-06-17T00:43:05.928Z,0.00
2018-06-17T00:44:05.928Z,0.00
2018-06-17T00:45:05.931Z,0.00
2018-06-17T00:46:05.939Z,0.00
2018-06-17T00:47:05.937Z,0.00
2018-06-17T00:48:05.944Z,0.00
2018-06-17T00:49:05.942Z,0.00
2018-06-17T00:50:05.946Z,0.00
2018-06-17T00:51:05.949Z,0.00
2018-06-17T00:52:05.950Z,0.00
2018-06-17T00:53:05.954Z,0.00
2018-06-17T00:54:05.961Z,0.00
2018-06-17T00:55:05.960Z,0.00
2018-06-17T00:56:05.959Z,0.00
2018-06-17T00:57:05.963Z,0.00
2018-06-17T00:58:05.965Z,0.00
2018-06-17T00:59:05.966Z,0.00
2018-06-17T01:00:05.971Z,0.00
2018-06-17T01:01:05.972Z,0.00
2018-06-17T01:02:05.976Z,0.00
2018-06-17T01:03:05.979Z,0.00
2018-06-17T01:04:06.044Z,0.00
2018-06-17T01:05:05.981Z,0.00
2018-06-17T01:06:05.989Z,0.00
2018-06-17T01:07:05.989Z,0.00
2018-06-17T01:08:05.990Z,0.00
2018-06-17T01:09:05.993Z,0.00
2018-06-17T01:10:05.996Z,0.00
2018-06-17T01:11:06.001Z,0.00
2018-06-17T01:12:06.003Z,0.00
2018-06-17T01:13:06.002Z,0.00
2018-06-17T01:14:06.008Z,0.00
2018-06-17T01:15:06.007Z,0.00
2018-06-17T01:16:06.009Z,0.00
2018-06-17T01:17:06.013Z,0.00
2018-06-17T01:18:06.015Z,0.00
2018-06-17T01:19:06.017Z,0.00
2018-06-17T01:20:06.020Z,0.00
2018-06-17T01:21:06.021Z,0.00
2018-06-17T01:22:06.021Z,0.00
2018-06-17T01:23:06.025Z,0.00
2018-06-17T01:24:06.029Z,0.00
2018-06-17T01:25:06.030Z,0.00
2018-06-17T01:26:06.034Z,0.00
2018-06-17T01:27:06.039Z,0.00
2018-06-17T01:28:06.038Z,0.00
2018-06-17T01:29:06.039Z,0.00
2018-06-17T01:30:06.041Z,0.00
2018-06-17T01:31:06.045Z,0.00
2018-06-17T01:32:06.045Z,0.00
2018-06-17T01:33:06.051Z,0.00
2018-06-17T01:34:06.049Z,0.00
2018-06-17T01:35:06.055Z,0.00
2018-06-17T01:36:06.056Z,0.00
2018-06-17T01:37:06.057Z,0.00
2018-06-17T01:38:06.060Z,0.00
2018-06-17T01:39:06.061Z,0.00
2018-06-17T01:40:06.068Z,0.00
2018-06-17T01:41:06.071Z,0.00
2018-06-17T01:42:06.069Z,0.00
2018-06-17T01:43:06.072Z,0.00
2018-06-17T01:44:06.069Z,0.00
2018-06-17T01:45:06.073Z,0.00
2018-06-17T01:46:06.078Z,0.00
2018-06-17T01:47:06.081Z,0.00
2018-06-17T01:48:06.082Z,0.00
2018-06-17T01:49:06.083Z,0.00
2018-06-17T01:50:06.085Z,0.00
2018-06-17T01:51:06.085Z,0.00
2018-06-17T01:52:06.089Z,0.00
2018-06-17T01:53:06.090Z,0.00
2018-06-17T01:54:06.100Z,0.00
2018-06-17T01:55:06.097Z,0.00
2018-06-17T01:56:06.095Z,0.00
2018-06-17T01:57:06.100Z,0.00
2018-06-17T01:58:06.111Z,4.00
2018-06-17T01:59:06.106Z,4.00
2018-06-17T02:00:06.104Z,4.00
2018-06-17T02:01:06.107Z,0.00
2018-06-17T02:02:06.106Z,0.00
2018-06-17T02:03:06.113Z,4.00
2018-06-17T02:04:06.115Z,4.00
2018-06-17T02:05:06.114Z,0.00
2018-06-17T02:06:06.113Z,4.00
2018-06-17T02:07:06.116Z,4.00
2018-06-17T02:08:06.119Z,8.00
2018-06-17T02:09:06.120Z,4.00
2018-06-17T02:10:06.123Z,8.00
2018-06-17T02:11:06.126Z,4.00
2018-06-17T02:12:06.127Z,8.00
2018-06-17T02:13:06.128Z,8.00
2018-06-17T02:14:06.131Z,8.00
2018-06-17T02:15:06.132Z,12.00
2018-06-17T02:16:06.138Z,12.00
2018-06-17T02:17:06.135Z,12.00
2018-06-17T02:18:06.140Z,12.00
2018-06-17T02:19:06.143Z,12.00
2018-06-17T02:20:06.140Z,16.00
2018-06-17T02:21:06.143Z,20.00
2018-06-17T02:22:06.146Z,20.00
2018-06-17T02:23:06.147Z,24.00
2018-06-17T02:24:06.152Z,24.00
2018-06-17T02:25:06.148Z,24.00
2018-06-17T02:26:06.150Z,32.00
2018-06-17T02:27:06.151Z,32.00
2018-06-17T02:28:06.162Z,36.00
2018-06-17T02:29:06.159Z,40.00
2018-06-17T02:30:06.160Z,44.00
2018-06-17T02:31:06.161Z,48.00
2018-06-17T02:32:06.160Z,52.00
2018-06-17T02:33:06.166Z,56.00
2018-06-17T02:34:06.167Z,60.00
2018-06-17T02:35:06.169Z,64.00
2018-06-17T02:36:06.170Z,72.00
2018-06-17T02:37:06.174Z,76.00
2018-06-17T02:38:06.173Z,80.00
2018-06-17T02:39:06.177Z,88.00
2018-06-17T02:40:06.177Z,96.00
2018-06-17T02:41:06.180Z,104.00
2018-06-17T02:42:06.181Z,112.00
2018-06-17T02:43:06.183Z,120.00
2018-06-17T02:44:06.185Z,128.00
2018-06-17T02:45:06.193Z,136.00
2018-06-17T02:46:06.186Z,144.00
2018-06-17T02:47:06.189Z,156.00
2018-06-17T02:48:06.191Z,168.00
2018-06-17T02:49:06.192Z,180.00
2018-06-17T02:50:06.197Z,184.00
2018-06-17T02:51:06.203Z,196.00
2018-06-17T02:52:06.199Z,212.00
2018-06-17T02:53:06.199Z,220.00
2018-06-17T02:54:06.202Z,236.00
2018-06-17T02:55:06.207Z,248.00
2018-06-17T02:56:06.208Z,260.00
2018-06-17T02:57:06.208Z,276.00
2018-06-17T02:58:06.218Z,288.00
2018-06-17T02:59:06.212Z,304.00
2018-06-17T03:00:06.218Z,320.00
2018-06-17T03:01:06.215Z,336.00
2018-06-17T03:02:06.218Z,352.00
2018-06-17T03:03:06.225Z,372.00
2018-06-17T03:04:06.220Z,384.00
2018-06-17T03:05:06.223Z,404.00
2018-06-17T03:06:06.230Z,420.00
2018-06-17T03:07:06.226Z,440.00
2018-06-17T03:08:06.233Z,456.00
2018-06-17T03:09:06.227Z,476.00
2018-06-17T03:10:06.233Z,496.00
2018-06-17T03:11:06.235Z,516.00
2018-06-17T03:12:06.234Z,536.00
2018-06-17T03:13:06.237Z,560.00
2018-06-17T03:14:06.237Z,580.00
2018-06-17T03:15:06.240Z,600.00
2018-06-17T03:16:06.241Z,624.00
2018-06-17T03:17:06.244Z,648.00
2018-06-17T03:18:06.244Z,672.00
2018-06-17T03:19:06.248Z,692.00
2018-06-17T03:20:06.251Z,716.00
2018-06-17T03:21:06.251Z,740.00
2018-06-17T03:22:06.251Z,764.00
2018-06-17T03:23:06.255Z,792.00
2018-06-17T03:24:06.254Z,820.00
2018-06-17T03:25:06.259Z,856.00
2018-06-17T03:26:06.261Z,912.00
2018-06-17T03:27:06.264Z,968.00
2018-06-17T03:28:06.261Z,1012.00
2018-06-17T03:29:06.260Z,1052.00
2018-06-17T03:30:06.265Z,1088.00
2018-06-17T03:31:06.268Z,1128.00
2018-06-17T03:32:06.270Z,1164.00
2018-06-17T03:33:06.272Z,1208.00
2018-06-17T03:34:06.274Z,1248.00
2018-06-17T03:35:06.276Z,1300.00
2018-06-17T03:36:06.277Z,1352.00
2018-06-17T03:37:06.285Z,1400.00
2018-06-17T03:38:06.280Z,1444.00
2018-06-17T03:39:06.286Z,1508.00
2018-06-17T03:40:06.285Z,1568.00
2018-06-17T03:41:06.291Z,1628.00
2018-06-17T03:42:06.289Z,1692.00
2018-06-17T03:43:06.293Z,1756.00
2018-06-17T03:44:06.293Z,1828.00
2018-06-17T03:45:06.297Z,1884.00
2018-06-17T03:46:06.298Z,1964.00
2018-06-17T03:47:06.305Z,2040.00
2018-06-17T03:48:06.305Z,2104.00
2018-06-17T03:49:06.307Z,2176.00
2018-06-17T03:50:06.304Z,2228.00
2018-06-17T03:51:06.307Z,2288.00
2018-06-17T03:52:06.310Z,2348.00
2018-06-17T03:53:06.315Z,2420.00
2018-06-17T03:54:06.319Z,2484.00
2018-06-17T03:55:06.320Z,2564.00
2018-06-17T03:56:06.321Z,2632.00
2018-06-17T03:57:06.328Z,2708.00
2018-06-17T03:58:06.326Z,2772.00
2018-06-17T03:59:06.328Z,2836.00
2018-06-17T04:00:06.333Z,2912.00
2018-06-17T04:01:06.335Z,2980.00
2018-06-17T04:02:06.337Z,3068.00
2018-06-17T04:03:06.343Z,3160.00
2018-06-17T04:04:06.347Z,3248.00
2018-06-17T04:05:06.349Z,3328.00
2018-06-17T04:06:06.357Z,3412.00
2018-06-17T04:07:06.356Z,3500.00
2018-06-17T04:08:06.356Z,3572.00
2018-06-17T04:09:06.359Z,3644.00
2018-06-17T04:10:06.362Z,3720.00
2018-06-17T04:11:06.367Z,3784.00
2018-06-17T04:12:06.369Z,3812.00
2018-06-17T04:13:06.371Z,3852.00
2018-06-17T04:14:06.375Z,3884.00
2018-06-17T04:15:06.379Z,3920.00
2018-06-17T04:16:06.381Z,3968.00
2018-06-17T04:17:06.381Z,4032.00
2018-06-17T04:18:06.386Z,4084.00
2018-06-17T04:19:06.391Z,4104.00
2018-06-17T04:20:06.396Z,4096.00
2018-06-17T04:21:06.403Z,4060.00
2018-06-17T04:22:06.403Z,4008.00
2018-06-17T04:23:06.409Z,4084.00
2018-06-17T04:24:06.410Z,4024.00
2018-06-17T04:25:06.414Z,4168.00
2018-06-17T04:26:06.413Z,4260.00
2018-06-17T04:27:06.423Z,4344.00
2018-06-17T04:28:06.424Z,4416.00
2018-06-17T04:29:06.427Z,4484.00
2018-06-17T04:30:06.433Z,4504.00
2018-06-17T04:31:06.440Z,4520.00
2018-06-17T04:32:06.441Z,4548.00
2018-06-17T04:33:06.446Z,4624.00
2018-06-17T04:34:06.451Z,4696.00
2018-06-17T04:35:06.457Z,4764.00
2018-06-17T04:36:06.458Z,4792.00
2018-06-17T04:37:06.462Z,4876.00
2018-06-17T04:38:06.469Z,4960.00
2018-06-17T04:39:06.475Z,4948.00
2018-06-17T04:40:06.482Z,4936.00
2018-06-17T04:41:06.481Z,4944.00
2018-06-17T04:42:06.484Z,4940.00
2018-06-17T04:43:06.492Z,5080.00
2018-06-17T04:44:06.495Z,5144.00
2018-06-17T04:45:06.501Z,5244.00
2018-06-17T04:46:06.512Z,5308.00
2018-06-17T04:47:06.509Z,5392.00
2018-06-17T04:48:06.515Z,5436.00
2018-06-17T04:49:06.518Z,5468.00
2018-06-17T04:50:06.524Z,5524.00
2018-06-17T04:51:06.528Z,5588.00
2018-06-17T04:52:06.531Z,5668.00
2018-06-17T04:53:06.537Z,5740.00
2018-06-17T04:54:06.542Z,5800.00
2018-06-17T04:55:06.550Z,5836.00
2018-06-17T04:56:06.553Z,5864.00
2018-06-17T04:57:06.556Z,5888.00
2018-06-17T04:58:06.563Z,5928.00
2018-06-17T04:59:06.569Z,5924.00
2018-06-17T05:00:06.668Z,5900.00
2018-06-17T05:01:06.575Z,5860.00
2018-06-17T05:02:06.582Z,5788.00
2018-06-17T05:03:06.588Z,5712.00
2018-06-17T05:04:06.593Z,5620.00
2018-06-17T05:05:06.601Z,5624.00
2018-06-17T05:06:06.606Z,5676.00
2018-06-17T05:07:06.611Z,5704.00
2018-06-17T05:08:06.618Z,5992.00
2018-06-17T05:09:06.626Z,6264.00
2018-06-17T05:10:06.630Z,6424.00
2018-06-17T05:11:06.635Z,6532.00
2018-06-17T05:12:06.640Z,6560.00
2018-06-17T05:13:06.645Z,6480.00
2018-06-17T05:14:06.652Z,6252.00
2018-06-17T05:15:06.658Z,6196.00
2018-06-17T05:16:06.662Z,6148.00
2018-06-17T05:17:06.680Z,5392.00
2018-06-17T05:18:06.678Z,4136.00
2018-06-17T05:19:06.684Z,5180.00
2018-06-17T05:20:06.687Z,4136.00
2018-06-17T05:21:06.694Z,4268.00
2018-06-17T05:22:06.699Z,5060.00
2018-06-17T05:23:06.706Z,4984.00
2018-06-17T05:24:06.711Z,6568.00
2018-06-17T05:25:06.717Z,6844.00
2018-06-17T05:26:06.724Z,6840.00
2018-06-17T05:27:06.730Z,6860.00
2018-06-17T05:28:06.734Z,6816.00
2018-06-17T05:29:06.740Z,6920.00
2018-06-17T05:30:06.747Z,6976.00
2018-06-17T05:31:06.754Z,7040.00
2018-06-17T05:32:06.761Z,7112.00
2018-06-17T05:33:06.766Z,7168.00
2018-06-17T05:34:06.772Z,7212.00
2018-06-17T05:35:06.777Z,7224.00
2018-06-17T05:36:06.783Z,7248.00
2018-06-17T05:37:06.790Z,7296.00
2018-06-17T05:38:06.795Z,7336.00
2018-06-17T05:39:06.799Z,7312.00
2018-06-17T05:40:06.807Z,7320.00
2018-06-17T05:41:06.815Z,7332.00
2018-06-17T05:42:06.819Z,7368.00
2018-06-17T05:43:06.827Z,7368.00
2018-06-17T05:44:06.835Z,7372.00
2018-06-17T05:45:06.840Z,7412.00
2018-06-17T05:46:06.850Z,7444.00
2018-06-17T05:47:06.852Z,7480.00
2018-06-17T05:48:06.857Z,7492.00
2018-06-17T05:49:06.864Z,7496.00
2018-06-17T05:50:06.871Z,7520.00
2018-06-17T05:51:06.879Z,7560.00
2018-06-17T05:52:06.884Z,7556.00
2018-06-17T05:53:06.890Z,7544.00
2018-06-17T05:54:06.898Z,7560.00
2018-06-17T05:55:06.905Z,7596.00
2018-06-17T05:56:06.910Z,7568.00
2018-06-17T05:57:06.918Z,7572.00
2018-06-17T05:58:06.926Z,7556.00
2018-06-17T05:59:06.936Z,7612.00
2018-06-17T06:00:06.941Z,7616.00
2018-06-17T06:01:06.949Z,7632.00
2018-06-17T06:02:06.955Z,7644.00
2018-06-17T06:03:06.961Z,7640.00
2018-06-17T06:04:07.103Z,7652.00
2018-06-17T06:05:06.976Z,7648.00
2018-06-17T06:06:06.982Z,7644.00
2018-06-17T06:07:06.987Z,7664.00
2018-06-17T06:08:06.994Z,7692.00
2018-06-17T06:09:07.000Z,7704.00
2018-06-17T06:10:07.016Z,7736.00
2018-06-17T06:11:07.013Z,7748.00
2018-06-17T06:12:07.037Z,7744.00
2018-06-17T06:13:07.030Z,7764.00
2018-06-17T06:14:07.036Z,7760.00
2018-06-17T06:15:07.045Z,7748.00
2018-06-17T06:16:07.051Z,7740.00
2018-06-17T06:17:07.055Z,7768.00
2018-06-17T06:18:07.062Z,7776.00
2018-06-17T06:19:07.069Z,7764.00
2018-06-17T06:20:07.075Z,7756.00
2018-06-17T06:21:07.087Z,7792.00
2018-06-17T06:22:07.093Z,7836.00
2018-06-17T06:23:07.101Z,7864.00
2018-06-17T06:24:07.108Z,7884.00
2018-06-17T06:25:07.116Z,7900.00
2018-06-17T06:26:07.120Z,7924.00
2018-06-17T06:27:07.131Z,7944.00
2018-06-17T06:28:07.137Z,7960.00
2018-06-17T06:29:07.150Z,7992.00
2018-06-17T06:30:07.154Z,8052.00
2018-06-17T06:31:07.160Z,8060.00
2018-06-17T06:32:07.167Z,8116.00
2018-06-17T06:33:07.173Z,8168.00
2018-06-17T06:34:07.187Z,8204.00
2018-06-17T06:35:07.191Z,8248.00
2018-06-17T06:36:07.199Z,8292.00
2018-06-17T06:37:07.204Z,8332.00
2018-06-17T06:38:07.215Z,8372.00
2018-06-17T06:39:07.220Z,8428.00
2018-06-17T06:40:07.226Z,8500.00
2018-06-17T06:41:07.238Z,8584.00
2018-06-17T06:42:07.243Z,8648.00
2018-06-17T06:43:07.251Z,8700.00
2018-06-17T06:44:07.259Z,8784.00
2018-06-17T06:45:07.266Z,8856.00
2018-06-17T06:46:07.282Z,8948.00
2018-06-17T06:47:07.283Z,9080.00
2018-06-17T06:48:07.291Z,9192.00
2018-06-17T06:49:07.299Z,9324.00
2018-06-17T06:50:07.368Z,9480.00
2018-06-17T06:51:07.369Z,9620.00
2018-06-17T06:52:07.326Z,9744.00
2018-06-17T06:53:07.335Z,9940.00
2018-06-17T06:54:07.344Z,10536.00
2018-06-17T06:55:07.353Z,15040.00
2018-06-17T06:56:07.367Z,25248.00
2018-06-17T06:57:07.373Z,34400.00
2018-06-17T06:58:07.379Z,36512.00
2018-06-17T06:59:07.388Z,36704.00
2018-06-17T07:00:07.397Z,38304.00
2018-06-17T07:01:07.405Z,37056.00
2018-06-17T07:02:07.415Z,37024.00
2018-06-17T07:03:07.424Z,37824.00
2018-06-17T07:04:07.433Z,38336.00
2018-06-17T07:05:07.442Z,39488.00
2018-06-17T07:06:07.452Z,39648.00
2018-06-17T07:07:07.462Z,38624.00
2018-06-17T07:08:07.469Z,39904.00
2018-06-17T07:09:07.484Z,39968.00
2018-06-17T07:10:07.492Z,38720.00
2018-06-17T07:11:07.493Z,39840.00
2018-06-17T07:12:07.507Z,40064.00
2018-06-17T07:13:07.517Z,41280.00
2018-06-17T07:14:07.535Z,41216.00
2018-06-17T07:15:07.538Z,43264.00
2018-06-17T07:16:07.545Z,47680.00
2018-06-17T07:17:07.558Z,42720.00
2018-06-17T07:18:07.567Z,42816.00
2018-06-17T07:19:07.577Z,46496.00
2018-06-17T07:20:07.586Z,43840.00
2018-06-17T07:21:07.596Z,42144.00
2018-06-17T07:22:07.605Z,44000.00
2018-06-17T07:23:07.616Z,44896.00
2018-06-17T07:24:07.625Z,44128.00
2018-06-17T07:25:07.695Z,48480.00
2018-06-17T07:26:07.650Z,49920.00
2018-06-17T07:27:07.654Z,43904.00
2018-06-17T07:28:07.665Z,41888.00
2018-06-17T07:29:07.675Z,40768.00
2018-06-17T07:30:07.681Z,38496.00
2018-06-17T07:31:07.696Z,39680.00
2018-06-17T07:32:07.704Z,41088.00
2018-06-17T07:33:07.715Z,41216.00
2018-06-17T07:34:07.725Z,42880.00
2018-06-17T07:35:07.735Z,45728.00
2018-06-17T07:36:07.744Z,49568.00
2018-06-17T07:37:07.753Z,53504.00
2018-06-17T07:38:07.767Z,54432.00
2018-06-17T07:39:07.774Z,40768.00
2018-06-17T07:40:07.786Z,26432.00
2018-06-17T07:41:07.793Z,32512.00
2018-06-17T07:42:07.808Z,42528.00
2018-06-17T07:43:07.814Z,51136.00
2018-06-17T07:44:07.823Z,51104.00
2018-06-17T07:45:07.832Z,53600.00
2018-06-17T07:46:07.842Z,52640.00
2018-06-17T07:47:07.852Z,51872.00
2018-06-17T07:48:07.860Z,50656.00
2018-06-17T07:49:07.870Z,53088.00
2018-06-17T07:50:07.879Z,57120.00
2018-06-17T07:51:07.889Z,57568.00
2018-06-17T07:52:07.900Z,54848.00
2018-06-17T07:53:07.908Z,56672.00
2018-06-17T07:54:07.918Z,55328.00
2018-06-17T07:55:07.927Z,53248.00
2018-06-17T07:56:07.997Z,56320.00
2018-06-17T07:57:07.945Z,56192.00
2018-06-17T07:58:07.958Z,52992.00
2018-06-17T07:59:07.964Z,54976.00
2018-06-17T08:00:07.972Z,56768.00
2018-06-17T08:01:07.982Z,41184.00
2018-06-17T08:02:07.990Z,52128.00
2018-06-17T08:03:07.999Z,53440.00
2018-06-17T08:04:08.007Z,56064.00
2018-06-17T08:05:08.017Z,46176.00
2018-06-17T08:06:08.025Z,39936.00
2018-06-17T08:07:08.032Z,45472.00
2018-06-17T08:08:08.049Z,54848.00
2018-06-17T08:09:08.055Z,50816.00
2018-06-17T08:10:08.071Z,61408.00
2018-06-17T08:11:08.152Z,59520.00
2018-06-17T08:12:08.083Z,64768.00
2018-06-17T08:13:08.091Z,56704.00
2018-06-17T08:14:08.102Z,27808.00
2018-06-17T08:15:08.120Z,22176.00
2018-06-17T08:16:08.124Z,17056.00
2018-06-17T08:17:08.130Z,16328.00
2018-06-17T08:18:08.137Z,33664.00
2018-06-17T08:19:08.148Z,61120.00
2018-06-17T08:20:08.208Z,70368.00
2018-06-17T08:21:08.165Z,66976.00
2018-06-17T08:22:08.180Z,64352.00
2018-06-17T08:23:08.185Z,68000.00
2018-06-17T08:24:08.188Z,67776.00
2018-06-17T08:25:08.201Z,62752.00
2018-06-17T08:26:08.213Z,64160.00
2018-06-17T08:27:08.223Z,71840.00
2018-06-17T08:28:08.233Z,36160.00
2018-06-17T08:29:08.239Z,29440.00
2018-06-17T08:30:08.250Z,58816.00
2018-06-17T08:31:08.272Z,30880.00
2018-06-17T08:32:08.267Z,32832.00
2018-06-17T08:33:08.278Z,61824.00
2018-06-17T08:34:08.289Z,71968.00
2018-06-17T08:35:08.298Z,73600.00
2018-06-17T08:36:08.308Z,71904.00
2018-06-17T08:37:08.317Z,71008.00
2018-06-17T08:38:08.327Z,74208.00
2018-06-17T08:39:08.383Z,74432.00
2018-06-17T08:40:08.350Z,67840.00
2018-06-17T08:41:08.356Z,65952.00
2018-06-17T08:42:08.365Z,59456.00
2018-06-17T08:43:08.374Z,44928.00
2018-06-17T08:44:08.383Z,38848.00
2018-06-17T08:45:08.397Z,70432.00
2018-06-17T08:46:08.411Z,75904.00
2018-06-17T08:47:08.418Z,70432.00
2018-06-17T08:48:08.426Z,67840.00
2018-06-17T08:49:08.443Z,63968.00
2018-06-17T08:50:08.449Z,74432.00
2018-06-17T08:51:08.461Z,64256.00
2018-06-17T08:52:08.476Z,61056.00
2018-06-17T08:53:08.483Z,79712.00
2018-06-17T08:54:08.531Z,80416.00
2018-06-17T08:55:08.508Z,68896.00
2018-06-17T08:56:08.515Z,75296.00
2018-06-17T08:57:08.529Z,71872.00
2018-06-17T08:58:08.537Z,73728.00
2018-06-17T08:59:08.549Z,40032.00
2018-06-17T09:00:08.578Z,11204.00
2018-06-17T09:01:08.571Z,7944.00
2018-06-17T09:02:08.584Z,7608.00
2018-06-17T09:03:08.597Z,7404.00
2018-06-17T09:04:08.605Z,7384.00
2018-06-17T09:05:08.615Z,7268.00
2018-06-17T09:06:08.625Z,6860.00
2018-06-17T09:07:08.635Z,6956.00
2018-06-17T09:08:08.642Z,7776.00
2018-06-17T09:09:08.655Z,8508.00
2018-06-17T09:10:08.662Z,9140.00
2018-06-17T09:11:08.668Z,9880.00
2018-06-17T09:12:08.677Z,9988.00
2018-06-17T09:13:08.689Z,9108.00
2018-06-17T09:14:08.703Z,9240.00
2018-06-17T09:15:08.708Z,9144.00
2018-06-17T09:16:08.716Z,9860.00
2018-06-17T09:17:08.727Z,10192.00
2018-06-17T09:18:08.731Z,9684.00
2018-06-17T09:19:08.739Z,9428.00
2018-06-17T09:20:08.747Z,8676.00
2018-06-17T09:21:08.755Z,7036.00
2018-06-17T09:22:08.761Z,6212.00
2018-06-17T09:23:08.771Z,6068.00
2018-06-17T09:24:08.775Z,6108.00
2018-06-17T09:25:08.822Z,6304.00
2018-06-17T09:26:08.789Z,6552.00
2018-06-17T09:27:08.798Z,6460.00
2018-06-17T09:28:08.803Z,6296.00
2018-06-17T09:29:08.813Z,6096.00
2018-06-17T09:30:08.818Z,5988.00
2018-06-17T09:31:08.825Z,5908.00
2018-06-17T09:32:08.887Z,5864.00
2018-06-17T09:33:08.834Z,5828.00
2018-06-17T09:34:08.845Z,5900.00
2018-06-17T09:35:08.851Z,6304.00
2018-06-17T09:36:08.857Z,6568.00
2018-06-17T09:37:08.863Z,6488.00
2018-06-17T09:38:08.869Z,6452.00
2018-06-17T09:39:08.877Z,5964.00
2018-06-17T09:40:08.881Z,5924.00
2018-06-17T09:41:08.884Z,6304.00
2018-06-17T09:42:08.890Z,7060.00
2018-06-17T09:43:08.900Z,8324.00
2018-06-17T09:44:08.907Z,7936.00
2018-06-17T09:45:08.913Z,7768.00
2018-06-17T09:46:08.919Z,8064.00
2018-06-17T09:47:08.924Z,7272.00
2018-06-17T09:48:08.931Z,6700.00
2018-06-17T09:49:08.939Z,7360.00
2018-06-17T09:50:08.942Z,6880.00
2018-06-17T09:51:08.953Z,6800.00
2018-06-17T09:52:08.972Z,6592.00
2018-06-17T09:53:08.958Z,6420.00
2018-06-17T09:54:08.965Z,6232.00
2018-06-17T09:55:08.985Z,7136.00
2018-06-17T09:56:08.974Z,6904.00
2018-06-17T09:57:08.980Z,6208.00
2018-06-17T09:58:08.986Z,6320.00
2018-06-17T09:59:08.992Z,6160.00
2018-06-17T10:00:08.996Z,5968.00
2018-06-17T10:01:09.001Z,5780.00
2018-06-17T10:02:09.007Z,5640.00
2018-06-17T10:03:09.020Z,5668.00
2018-06-17T10:04:09.020Z,5692.00
2018-06-17T10:05:09.024Z,5592.00
2018-06-17T10:06:09.031Z,5540.00
2018-06-17T10:07:09.037Z,5548.00
2018-06-17T10:08:09.042Z,5684.00
2018-06-17T10:09:09.047Z,6188.00
2018-06-17T10:10:09.053Z,6904.00
2018-06-17T10:11:09.060Z,7712.00
2018-06-17T10:12:09.066Z,9152.00
2018-06-17T10:13:09.070Z,10356.00
2018-06-17T10:14:09.078Z,9992.00
2018-06-17T10:15:09.081Z,10196.00
2018-06-17T10:16:09.087Z,8580.00
2018-06-17T10:17:09.092Z,8192.00
2018-06-17T10:18:09.098Z,8080.00
2018-06-17T10:19:09.106Z,8984.00
2018-06-17T10:20:09.103Z,9788.00
2018-06-17T10:21:09.132Z,10100.00
2018-06-17T10:22:09.120Z,9160.00
2018-06-17T10:23:09.126Z,9240.00
2018-06-17T10:24:09.132Z,8680.00
2018-06-17T10:25:09.137Z,8656.00
2018-06-17T10:26:09.142Z,9316.00
2018-06-17T10:27:09.149Z,7952.00
2018-06-17T10:28:09.154Z,8104.00
2018-06-17T10:29:09.157Z,7936.00
2018-06-17T10:30:09.164Z,6964.00
2018-06-17T10:31:09.172Z,7160.00
2018-06-17T10:32:09.177Z,7204.00
2018-06-17T10:33:09.182Z,6456.00
2018-06-17T10:34:09.188Z,5292.00
2018-06-17T10:35:09.194Z,4968.00
2018-06-17T10:36:09.201Z,6008.00
2018-06-17T10:37:09.205Z,8532.00
2018-06-17T10:38:09.276Z,8388.00
2018-06-17T10:39:09.218Z,8468.00
2018-06-17T10:40:09.221Z,8844.00
2018-06-17T10:41:09.228Z,7228.00
2018-06-17T10:42:09.234Z,7204.00
2018-06-17T10:43:09.241Z,7052.00
2018-06-17T10:44:09.244Z,7268.00
2018-06-17T10:45:09.253Z,6996.00
2018-06-17T10:46:09.257Z,7872.00
2018-06-17T10:47:09.263Z,7640.00
2018-06-17T10:48:09.270Z,7592.00
2018-06-17T10:49:09.276Z,7484.00
2018-06-17T10:50:09.282Z,6900.00
2018-06-17T10:51:09.288Z,7328.00
2018-06-17T10:52:09.290Z,6472.00
2018-06-17T10:53:09.300Z,6312.00
2018-06-17T10:54:09.307Z,6560.00
2018-06-17T10:55:09.308Z,6888.00
2018-06-17T10:56:09.365Z,6844.00
2018-06-17T10:57:09.325Z,6156.00
2018-06-17T10:58:09.329Z,7708.00
2018-06-17T10:59:09.332Z,7844.00
2018-06-17T11:00:09.340Z,8248.00
2018-06-17T11:01:09.350Z,8016.00
2018-06-17T11:02:09.348Z,9492.00
2018-06-17T11:03:09.358Z,8460.00
2018-06-17T11:04:09.361Z,9908.00
2018-06-17T11:05:09.367Z,10272.00
2018-06-17T11:06:09.371Z,10208.00
2018-06-17T11:07:09.380Z,10912.00
2018-06-17T11:08:09.387Z,10896.00
2018-06-17T11:09:09.387Z,10756.00
2018-06-17T11:10:09.395Z,10268.00
2018-06-17T11:11:09.401Z,9752.00
2018-06-17T11:12:09.404Z,11476.00
2018-06-17T11:13:09.462Z,11264.00
2018-06-17T11:14:09.416Z,11176.00
2018-06-17T11:15:09.423Z,11164.00
2018-06-17T11:16:09.427Z,9388.00
2018-06-17T11:17:09.434Z,8588.00
2018-06-17T11:18:09.440Z,8556.00
2018-06-17T11:19:09.446Z,8100.00
2018-06-17T11:20:09.452Z,7476.00
2018-06-17T11:21:09.459Z,6728.00
2018-06-17T11:22:09.463Z,7764.00
2018-06-17T11:23:09.470Z,7964.00
2018-06-17T11:24:09.475Z,8876.00
2018-06-17T11:25:09.481Z,7724.00
2018-06-17T11:26:09.486Z,6928.00
2018-06-17T11:27:09.497Z,6624.00
2018-06-17T11:28:09.504Z,5228.00
2018-06-17T11:29:09.504Z,6128.00
2018-06-17T11:30:09.507Z,6856.00
2018-06-17T11:31:09.514Z,6060.00
2018-06-17T11:32:09.525Z,6780.00
2018-06-17T11:33:09.526Z,6060.00
2018-06-17T11:34:09.532Z,6872.00
2018-06-17T11:35:09.537Z,7384.00
2018-06-17T11:36:09.540Z,6588.00
2018-06-17T11:37:09.547Z,7168.00
2018-06-17T11:38:09.551Z,5540.00
2018-06-17T11:39:09.738Z,5244.00
2018-06-17T11:40:09.564Z,5688.00
2018-06-17T11:41:09.570Z,5364.00
2018-06-17T11:42:09.575Z,5868.00
2018-06-17T11:43:09.585Z,6300.00
2018-06-17T11:44:09.587Z,5368.00
2018-06-17T11:45:09.592Z,4724.00
2018-06-17T11:46:09.601Z,5472.00
2018-06-17T11:47:09.608Z,5324.00
2018-06-17T11:48:09.608Z,4816.00
2018-06-17T11:49:09.616Z,4896.00
2018-06-17T11:50:09.624Z,5472.00
2018-06-17T11:51:09.625Z,5368.00
2018-06-17T11:52:09.629Z,5388.00
2018-06-17T11:53:09.636Z,5016.00
2018-06-17T11:54:09.640Z,4856.00
2018-06-17T11:55:09.644Z,4552.00
2018-06-17T11:56:09.651Z,4532.00
2018-06-17T11:57:09.655Z,4572.00
2018-06-17T11:58:09.659Z,4500.00
2018-06-17T11:59:09.663Z,4392.00
2018-06-17T12:00:09.668Z,4092.00
2018-06-17T12:01:09.672Z,3940.00
2018-06-17T12:02:09.681Z,3868.00
2018-06-17T12:03:09.685Z,4264.00
2018-06-17T12:04:09.689Z,4752.00
2018-06-17T12:05:09.695Z,5500.00
2018-06-17T12:06:09.701Z,5516.00
2018-06-17T12:07:09.707Z,5956.00
2018-06-17T12:08:09.713Z,6440.00
2018-06-17T12:09:09.772Z,6212.00
2018-06-17T12:10:09.726Z,7200.00
2018-06-17T12:11:09.727Z,8244.00
2018-06-17T12:12:09.732Z,8280.00
2018-06-17T12:13:09.740Z,8432.00
2018-06-17T12:14:09.743Z,7556.00
2018-06-17T12:15:09.749Z,6840.00
2018-06-17T12:16:09.758Z,6824.00